sensor_id;sensor_type;location;lat;lon;timestamp;temperature;humidity
18335;DHT22;9293;49.524;10.964;2023-08-06T00:01:27;16.10;99.90
18335;DHT22;9293;49.524;10.964;2023-08-06T00:03:55;16.00;99.90
18335;DHT22;9293;49.524;10.964;2023-08-06T00:06:23;16.00;99.90
18335;DHT22;9293;49.524;10.964;2023-08-06T00:08:51;16.00;99.90
18335;DHT22;9293;49.524;10.964;2023-08-06T00:11:19;16.00;99.90
18335;DHT22;9293;49.524;10.964;2023-08-06T00:13:47;16.00;99.90
18335;DHT22;9293;49.524;10.964;2023-08-06T00:16:16;16.00;99.90
18335;DHT22;9293;49.524;10.964;2023-08-06T00:18:44;16.00;99.90
18335;DHT22;9293;49.524;10.964;2023-08-06T00:21:12;16.10;99.90
18335;DHT22;9293;49.524;10.964;2023-08-06T00:23:40;16.10;99.90
18335;DHT22;9293;49.524;10.964;2023-08-06T00:26:09;16.10;99.90
18335;DHT22;9293;49.524;10.964;2023-08-06T00:28:37;16.10;99.90
18335;DHT22;9293;49.524;10.964;2023-08-06T00:31:05;16.20;99.90
18335;DHT22;9293;49.524;10.964;2023-08-06T00:33:33;16.20;99.90
18335;DHT22;9293;49.524;10.964;2023-08-06T00:36:01;16.20;99.90
18335;DHT22;9293;49.524;10.964;2023-08-06T00:38:30;16.20;99.90
18335;DHT22;9293;49.524;10.964;2023-08-06T00:40:58;16.20;99.90
18335;DHT22;9293;49.524;10.964;2023-08-06T00:43:26;16.20;99.90
18335;DHT22;9293;49.524;10.964;2023-08-06T00:45:54;16.20;99.90
18335;DHT22;9293;49.524;10.964;2023-08-06T00:48:23;16.20;99.90
18335;DHT22;9293;49.524;10.964;2023-08-06T00:50:51;16.20;99.90
18335;DHT22;9293;49.524;10.964;2023-08-06T00:53:20;16.20;99.90
18335;DHT22;9293;49.524;10.964;2023-08-06T00:55:49;16.20;99.90
18335;DHT22;9293;49.524;10.964;2023-08-06T00:58:18;16.20;99.90
18335;DHT22;9293;49.524;10.964;2023-08-06T01:00:46;16.00;99.90
18335;DHT22;9293;49.524;10.964;2023-08-06T01:03:14;15.90;99.90
18335;DHT22;9293;49.524;10.964;2023-08-06T01:05:43;15.90;99.90
18335;DHT22;9293;49.524;10.964;2023-08-06T01:13:34;15.60;99.90
18335;DHT22;9293;49.524;10.964;2023-08-06T01:16:06;15.60;99.90
18335;DHT22;9293;49.524;10.964;2023-08-06T01:22:07;15.70;99.90
18335;DHT22;9293;49.524;10.964;2023-08-06T01:24:35;15.70;99.90
18335;DHT22;9293;49.524;10.964;2023-08-06T01:27:04;15.70;99.90
18335;DHT22;9293;49.524;10.964;2023-08-06T01:29:35;15.80;99.90
18335;DHT22;9293;49.524;10.964;2023-08-06T01:32:05;15.70;99.90
18335;DHT22;9293;49.524;10.964;2023-08-06T01:34:33;15.70;99.90
18335;DHT22;9293;49.524;10.964;2023-08-06T01:37:02;15.60;99.90
18335;DHT22;9293;49.524;10.964;2023-08-06T01:39:34;15.60;99.90
18335;DHT22;9293;49.524;10.964;2023-08-06T01:42:03;15.60;99.90
18335;DHT22;9293;49.524;10.964;2023-08-06T01:44:31;15.70;99.90
18335;DHT22;9293;49.524;10.964;2023-08-06T01:46:59;15.70;99.90
18335;DHT22;9293;49.524;10.964;2023-08-06T01:49:27;15.70;99.90
18335;DHT22;9293;49.524;10.964;2023-08-06T01:51:56;15.70;99.90
18335;DHT22;9293;49.524;10.964;2023-08-06T01:54:24;15.60;99.90
18335;DHT22;9293;49.524;10.964;2023-08-06T01:56:52;15.70;99.90
18335;DHT22;9293;49.524;10.964;2023-08-06T01:59:20;15.60;99.90
18335;DHT22;9293;49.524;10.964;2023-08-06T02:05:54;15.40;99.90
18335;DHT22;9293;49.524;10.964;2023-08-06T02:08:22;15.40;99.90
18335;DHT22;9293;49.524;10.964;2023-08-06T02:10:50;15.40;99.90
18335;DHT22;9293;49.524;10.964;2023-08-06T02:13:18;15.40;99.90
18335;DHT22;9293;49.524;10.964;2023-08-06T02:15:46;15.40;99.90
18335;DHT22;9293;49.524;10.964;2023-08-06T02:18:20;15.40;99.90
18335;DHT22;9293;49.524;10.964;2023-08-06T02:20:55;15.40;99.90
18335;DHT22;9293;49.524;10.964;2023-08-06T02:23:24;15.50;99.90
18335;DHT22;9293;49.524;10.964;2023-08-06T02:25:59;15.50;99.90
18335;DHT22;9293;49.524;10.964;2023-08-06T02:28:28;15.40;99.90
18335;DHT22;9293;49.524;10.964;2023-08-06T02:30:56;15.40;99.90
18335;DHT22;9293;49.524;10.964;2023-08-06T02:33:24;15.40;99.90
18335;DHT22;9293;49.524;10.964;2023-08-06T02:36:01;15.40;99.90
18335;DHT22;9293;49.524;10.964;2023-08-06T02:38:29;15.50;99.90
18335;DHT22;9293;49.524;10.964;2023-08-06T02:40:58;15.50;99.90
18335;DHT22;9293;49.524;10.964;2023-08-06T02:43:26;15.40;99.90
18335;DHT22;9293;49.524;10.964;2023-08-06T02:45:58;15.50;99.90
18335;DHT22;9293;49.524;10.964;2023-08-06T02:48:27;15.50;99.90
18335;DHT22;9293;49.524;10.964;2023-08-06T02:50:59;15.50;99.90
18335;DHT22;9293;49.524;10.964;2023-08-06T02:53:29;15.50;99.90
18335;DHT22;9293;49.524;10.964;2023-08-06T02:56:00;15.40;99.90
18335;DHT22;9293;49.524;10.964;2023-08-06T02:58:37;15.40;99.90
18335;DHT22;9293;49.524;10.964;2023-08-06T03:01:14;15.40;99.90
18335;DHT22;9293;49.524;10.964;2023-08-06T03:03:52;15.30;99.90
18335;DHT22;9293;49.524;10.964;2023-08-06T03:06:27;15.30;99.90
18335;DHT22;9293;49.524;10.964;2023-08-06T03:08:58;15.30;99.90
18335;DHT22;9293;49.524;10.964;2023-08-06T03:11:26;15.30;99.90
18335;DHT22;9293;49.524;10.964;2023-08-06T03:14:01;15.30;99.90
18335;DHT22;9293;49.524;10.964;2023-08-06T03:16:30;15.30;99.90
18335;DHT22;9293;49.524;10.964;2023-08-06T03:18:59;15.30;99.90
18335;DHT22;9293;49.524;10.964;2023-08-06T03:21:27;15.30;99.90
18335;DHT22;9293;49.524;10.964;2023-08-06T03:23:57;15.20;99.90
18335;DHT22;9293;49.524;10.964;2023-08-06T03:26:28;15.20;99.90
18335;DHT22;9293;49.524;10.964;2023-08-06T03:28:56;15.10;99.90
18335;DHT22;9293;49.524;10.964;2023-08-06T03:31:26;15.00;99.90
18335;DHT22;9293;49.524;10.964;2023-08-06T03:33:54;15.00;99.90
18335;DHT22;9293;49.524;10.964;2023-08-06T03:36:25;14.90;99.90
18335;DHT22;9293;49.524;10.964;2023-08-06T03:38:54;14.90;99.90
18335;DHT22;9293;49.524;10.964;2023-08-06T03:41:23;14.90;99.90
18335;DHT22;9293;49.524;10.964;2023-08-06T03:43:51;14.80;99.90
18335;DHT22;9293;49.524;10.964;2023-08-06T03:46:24;14.80;99.90
18335;DHT22;9293;49.524;10.964;2023-08-06T03:48:57;14.80;99.90
18335;DHT22;9293;49.524;10.964;2023-08-06T03:51:25;14.80;99.90
18335;DHT22;9293;49.524;10.964;2023-08-06T03:53:57;14.70;99.90
18335;DHT22;9293;49.524;10.964;2023-08-06T03:56:25;14.70;99.90
18335;DHT22;9293;49.524;10.964;2023-08-06T03:58:54;14.70;99.90
18335;DHT22;9293;49.524;10.964;2023-08-06T04:01:23;14.70;99.90
18335;DHT22;9293;49.524;10.964;2023-08-06T04:03:52;14.70;99.90
18335;DHT22;9293;49.524;10.964;2023-08-06T04:06:20;14.70;99.90
18335;DHT22;9293;49.524;10.964;2023-08-06T04:08:49;14.70;99.90
18335;DHT22;9293;49.524;10.964;2023-08-06T04:11:17;14.70;99.90
18335;DHT22;9293;49.524;10.964;2023-08-06T04:13:45;14.70;99.90
18335;DHT22;9293;49.524;10.964;2023-08-06T04:16:13;14.70;99.90
18335;DHT22;9293;49.524;10.964;2023-08-06T04:18:42;14.60;99.90
18335;DHT22;9293;49.524;10.964;2023-08-06T04:21:12;14.60;99.90
18335;DHT22;9293;49.524;10.964;2023-08-06T04:23:40;14.60;99.90
18335;DHT22;9293;49.524;10.964;2023-08-06T04:26:08;14.60;99.90
18335;DHT22;9293;49.524;10.964;2023-08-06T04:28:37;14.60;99.90
18335;DHT22;9293;49.524;10.964;2023-08-06T04:31:05;14.60;99.90
18335;DHT22;9293;49.524;10.964;2023-08-06T04:33:34;14.60;99.90
18335;DHT22;9293;49.524;10.964;2023-08-06T04:36:07;14.50;99.90
18335;DHT22;9293;49.524;10.964;2023-08-06T04:38:36;14.50;99.90
18335;DHT22;9293;49.524;10.964;2023-08-06T04:41:04;14.50;99.90
18335;DHT22;9293;49.524;10.964;2023-08-06T04:43:32;14.50;99.90
18335;DHT22;9293;49.524;10.964;2023-08-06T04:46:00;14.50;99.90
18335;DHT22;9293;49.524;10.964;2023-08-06T04:48:28;14.50;99.90
18335;DHT22;9293;49.524;10.964;2023-08-06T04:50:56;14.40;99.90
18335;DHT22;9293;49.524;10.964;2023-08-06T04:53:25;14.50;99.90
18335;DHT22;9293;49.524;10.964;2023-08-06T04:55:53;14.40;99.90
18335;DHT22;9293;49.524;10.964;2023-08-06T04:58:21;14.50;99.90
18335;DHT22;9293;49.524;10.964;2023-08-06T05:00:49;14.50;99.90
18335;DHT22;9293;49.524;10.964;2023-08-06T05:03:17;14.40;99.90
18335;DHT22;9293;49.524;10.964;2023-08-06T05:05:45;14.40;99.90
18335;DHT22;9293;49.524;10.964;2023-08-06T05:08:14;14.40;99.90
18335;DHT22;9293;49.524;10.964;2023-08-06T05:10:44;14.50;99.90
18335;DHT22;9293;49.524;10.964;2023-08-06T05:13:13;14.50;99.90
18335;DHT22;9293;49.524;10.964;2023-08-06T05:15:41;14.60;99.90
18335;DHT22;9293;49.524;10.964;2023-08-06T05:18:10;14.70;99.90
18335;DHT22;9293;49.524;10.964;2023-08-06T05:20:40;14.70;99.90
18335;DHT22;9293;49.524;10.964;2023-08-06T05:23:08;14.80;99.90
18335;DHT22;9293;49.524;10.964;2023-08-06T05:25:37;14.80;99.90
18335;DHT22;9293;49.524;10.964;2023-08-06T05:28:05;14.80;99.90
18335;DHT22;9293;49.524;10.964;2023-08-06T05:30:43;14.90;99.90
18335;DHT22;9293;49.524;10.964;2023-08-06T05:33:11;14.90;99.90
18335;DHT22;9293;49.524;10.964;2023-08-06T05:35:40;14.90;99.90
18335;DHT22;9293;49.524;10.964;2023-08-06T05:38:08;14.90;99.90
18335;DHT22;9293;49.524;10.964;2023-08-06T05:40:36;15.00;99.90
18335;DHT22;9293;49.524;10.964;2023-08-06T05:43:05;15.00;99.90
18335;DHT22;9293;49.524;10.964;2023-08-06T05:45:33;15.00;99.90
18335;DHT22;9293;49.524;10.964;2023-08-06T05:48:01;15.10;99.90
18335;DHT22;9293;49.524;10.964;2023-08-06T05:50:29;15.20;99.90
18335;DHT22;9293;49.524;10.964;2023-08-06T05:52:57;15.20;99.90
18335;DHT22;9293;49.524;10.964;2023-08-06T05:55:27;15.30;99.90
18335;DHT22;9293;49.524;10.964;2023-08-06T05:57:55;15.50;99.90
18335;DHT22;9293;49.524;10.964;2023-08-06T06:00:24;15.60;99.90
18335;DHT22;9293;49.524;10.964;2023-08-06T06:02:52;15.70;99.90
18335;DHT22;9293;49.524;10.964;2023-08-06T06:05:20;15.80;99.90
18335;DHT22;9293;49.524;10.964;2023-08-06T06:07:48;16.10;99.90
18335;DHT22;9293;49.524;10.964;2023-08-06T06:10:16;16.30;99.90
18335;DHT22;9293;49.524;10.964;2023-08-06T06:12:44;16.30;99.90
18335;DHT22;9293;49.524;10.964;2023-08-06T06:15:13;16.40;99.90
18335;DHT22;9293;49.524;10.964;2023-08-06T06:17:41;16.30;99.90
18335;DHT22;9293;49.524;10.964;2023-08-06T06:20:09;16.30;99.90
18335;DHT22;9293;49.524;10.964;2023-08-06T06:22:37;16.10;99.90
18335;DHT22;9293;49.524;10.964;2023-08-06T06:25:05;15.80;99.90
18335;DHT22;9293;49.524;10.964;2023-08-06T06:27:34;15.80;99.90
18335;DHT22;9293;49.524;10.964;2023-08-06T06:30:02;15.80;99.90
18335;DHT22;9293;49.524;10.964;2023-08-06T06:32:31;15.90;99.90
18335;DHT22;9293;49.524;10.964;2023-08-06T06:35:00;15.90;99.90
18335;DHT22;9293;49.524;10.964;2023-08-06T06:37:28;15.90;99.90
18335;DHT22;9293;49.524;10.964;2023-08-06T06:39:56;15.90;99.90
18335;DHT22;9293;49.524;10.964;2023-08-06T06:42:24;15.80;99.90
18335;DHT22;9293;49.524;10.964;2023-08-06T06:44:58;15.70;99.90
18335;DHT22;9293;49.524;10.964;2023-08-06T06:47:26;15.80;99.90
18335;DHT22;9293;49.524;10.964;2023-08-06T06:49:54;15.80;99.90
18335;DHT22;9293;49.524;10.964;2023-08-06T06:52:23;15.80;99.90
18335;DHT22;9293;49.524;10.964;2023-08-06T06:54:51;15.70;99.90
18335;DHT22;9293;49.524;10.964;2023-08-06T06:57:19;15.80;99.90
18335;DHT22;9293;49.524;10.964;2023-08-06T06:59:47;15.80;99.90
18335;DHT22;9293;49.524;10.964;2023-08-06T07:02:15;15.80;99.90
18335;DHT22;9293;49.524;10.964;2023-08-06T07:04:43;15.80;99.90
18335;DHT22;9293;49.524;10.964;2023-08-06T07:07:11;15.90;99.90
18335;DHT22;9293;49.524;10.964;2023-08-06T07:09:39;15.90;99.90
18335;DHT22;9293;49.524;10.964;2023-08-06T07:12:07;15.90;99.90
18335;DHT22;9293;49.524;10.964;2023-08-06T07:14:36;15.80;99.90
18335;DHT22;9293;49.524;10.964;2023-08-06T07:17:04;15.80;99.90
18335;DHT22;9293;49.524;10.964;2023-08-06T07:19:32;15.90;99.90
18335;DHT22;9293;49.524;10.964;2023-08-06T07:22:00;15.90;99.90
18335;DHT22;9293;49.524;10.964;2023-08-06T07:24:32;16.00;99.90
18335;DHT22;9293;49.524;10.964;2023-08-06T07:27:00;16.10;99.90
18335;DHT22;9293;49.524;10.964;2023-08-06T07:29:33;16.30;99.90
18335;DHT22;9293;49.524;10.964;2023-08-06T07:32:01;16.40;99.90
18335;DHT22;9293;49.524;10.964;2023-08-06T07:34:29;16.40;99.90
18335;DHT22;9293;49.524;10.964;2023-08-06T07:36:57;16.60;99.90
18335;DHT22;9293;49.524;10.964;2023-08-06T07:39:25;16.90;99.90
18335;DHT22;9293;49.524;10.964;2023-08-06T07:41:53;17.60;99.90
18335;DHT22;9293;49.524;10.964;2023-08-06T07:44:22;18.10;99.90
18335;DHT22;9293;49.524;10.964;2023-08-06T07:46:50;18.30;99.90
18335;DHT22;9293;49.524;10.964;2023-08-06T07:49:18;18.20;99.90
18335;DHT22;9293;49.524;10.964;2023-08-06T07:51:46;18.00;99.90
18335;DHT22;9293;49.524;10.964;2023-08-06T07:54:15;18.20;99.90
18335;DHT22;9293;49.524;10.964;2023-08-06T07:56:43;18.40;99.90
18335;DHT22;9293;49.524;10.964;2023-08-06T07:59:11;18.40;99.90
18335;DHT22;9293;49.524;10.964;2023-08-06T08:01:39;18.40;99.90
18335;DHT22;9293;49.524;10.964;2023-08-06T08:04:07;18.70;99.90
18335;DHT22;9293;49.524;10.964;2023-08-06T08:06:35;19.30;99.90
18335;DHT22;9293;49.524;10.964;2023-08-06T08:09:04;19.80;99.90
18335;DHT22;9293;49.524;10.964;2023-08-06T08:11:32;19.70;99.90
18335;DHT22;9293;49.524;10.964;2023-08-06T08:14:00;19.50;99.90
18335;DHT22;9293;49.524;10.964;2023-08-06T08:16:28;19.40;99.90
18335;DHT22;9293;49.524;10.964;2023-08-06T08:18:56;19.20;99.90
18335;DHT22;9293;49.524;10.964;2023-08-06T08:21:24;18.80;99.90
18335;DHT22;9293;49.524;10.964;2023-08-06T08:23:53;18.40;99.90
18335;DHT22;9293;49.524;10.964;2023-08-06T08:26:21;18.10;99.90
18335;DHT22;9293;49.524;10.964;2023-08-06T08:28:49;17.90;99.90
18335;DHT22;9293;49.524;10.964;2023-08-06T08:31:17;18.20;99.90
18335;DHT22;9293;49.524;10.964;2023-08-06T08:33:45;18.50;99.90
18335;DHT22;9293;49.524;10.964;2023-08-06T08:36:14;18.70;99.90
18335;DHT22;9293;49.524;10.964;2023-08-06T08:38:42;19.00;99.90
18335;DHT22;9293;49.524;10.964;2023-08-06T08:41:10;19.30;99.90
18335;DHT22;9293;49.524;10.964;2023-08-06T08:43:39;18.90;99.90
18335;DHT22;9293;49.524;10.964;2023-08-06T08:46:08;18.50;99.90
18335;DHT22;9293;49.524;10.964;2023-08-06T08:48:37;18.30;99.90
18335;DHT22;9293;49.524;10.964;2023-08-06T08:51:05;18.20;99.90
18335;DHT22;9293;49.524;10.964;2023-08-06T08:53:34;18.30;99.90
18335;DHT22;9293;49.524;10.964;2023-08-06T08:56:03;18.50;99.90
18335;DHT22;9293;49.524;10.964;2023-08-06T08:58:32;18.50;99.90
18335;DHT22;9293;49.524;10.964;2023-08-06T09:01:00;18.40;99.90
18335;DHT22;9293;49.524;10.964;2023-08-06T09:03:29;18.50;99.90
18335;DHT22;9293;49.524;10.964;2023-08-06T09:05:57;18.40;99.90
18335;DHT22;9293;49.524;10.964;2023-08-06T09:08:27;18.50;99.90
18335;DHT22;9293;49.524;10.964;2023-08-06T09:10:55;18.20;99.90
18335;DHT22;9293;49.524;10.964;2023-08-06T09:13:24;18.10;99.90
18335;DHT22;9293;49.524;10.964;2023-08-06T09:15:53;18.10;99.90
18335;DHT22;9293;49.524;10.964;2023-08-06T09:18:25;18.50;99.90
18335;DHT22;9293;49.524;10.964;2023-08-06T09:21:14;18.60;99.90
18335;DHT22;9293;49.524;10.964;2023-08-06T09:23:43;18.30;99.90
18335;DHT22;9293;49.524;10.964;2023-08-06T09:26:12;18.00;99.90
18335;DHT22;9293;49.524;10.964;2023-08-06T09:28:42;17.90;99.90
18335;DHT22;9293;49.524;10.964;2023-08-06T09:31:11;18.00;99.90
18335;DHT22;9293;49.524;10.964;2023-08-06T09:33:39;18.30;99.90
18335;DHT22;9293;49.524;10.964;2023-08-06T09:36:08;18.80;99.90
18335;DHT22;9293;49.524;10.964;2023-08-06T09:38:40;19.20;99.90
18335;DHT22;9293;49.524;10.964;2023-08-06T09:41:08;19.40;99.90
18335;DHT22;9293;49.524;10.964;2023-08-06T09:43:42;19.40;99.90
18335;DHT22;9293;49.524;10.964;2023-08-06T09:46:11;19.40;99.90
18335;DHT22;9293;49.524;10.964;2023-08-06T09:48:44;19.10;99.90
18335;DHT22;9293;49.524;10.964;2023-08-06T09:51:12;19.00;99.90
18335;DHT22;9293;49.524;10.964;2023-08-06T09:53:41;19.30;99.90
18335;DHT22;9293;49.524;10.964;2023-08-06T09:56:09;19.40;99.90
18335;DHT22;9293;49.524;10.964;2023-08-06T09:58:39;19.30;99.90
18335;DHT22;9293;49.524;10.964;2023-08-06T10:01:07;19.10;99.90
18335;DHT22;9293;49.524;10.964;2023-08-06T10:03:36;18.80;99.90
18335;DHT22;9293;49.524;10.964;2023-08-06T10:06:04;18.50;99.90
18335;DHT22;9293;49.524;10.964;2023-08-06T10:08:34;18.40;99.90
18335;DHT22;9293;49.524;10.964;2023-08-06T10:11:03;18.70;99.90
18335;DHT22;9293;49.524;10.964;2023-08-06T10:13:32;19.20;99.90
18335;DHT22;9293;49.524;10.964;2023-08-06T10:16:01;19.60;99.90
18335;DHT22;9293;49.524;10.964;2023-08-06T10:18:38;20.30;99.90
18335;DHT22;9293;49.524;10.964;2023-08-06T10:21:08;20.50;99.90
18335;DHT22;9293;49.524;10.964;2023-08-06T10:23:36;20.20;99.90
18335;DHT22;9293;49.524;10.964;2023-08-06T10:26:06;20.10;99.90
18335;DHT22;9293;49.524;10.964;2023-08-06T10:28:35;19.70;99.90
18335;DHT22;9293;49.524;10.964;2023-08-06T10:31:04;19.30;99.90
18335;DHT22;9293;49.524;10.964;2023-08-06T10:33:42;19.00;99.90
18335;DHT22;9293;49.524;10.964;2023-08-06T10:36:11;18.90;99.90
18335;DHT22;9293;49.524;10.964;2023-08-06T10:38:46;19.30;99.90
18335;DHT22;9293;49.524;10.964;2023-08-06T10:41:28;19.30;99.90
18335;DHT22;9293;49.524;10.964;2023-08-06T10:44:06;19.10;99.90
18335;DHT22;9293;49.524;10.964;2023-08-06T10:46:40;18.90;99.90
18335;DHT22;9293;49.524;10.964;2023-08-06T10:49:11;19.00;99.90
18335;DHT22;9293;49.524;10.964;2023-08-06T10:51:40;19.40;99.90
18335;DHT22;9293;49.524;10.964;2023-08-06T10:54:09;20.20;99.90
18335;DHT22;9293;49.524;10.964;2023-08-06T10:56:39;20.80;99.90
18335;DHT22;9293;49.524;10.964;2023-08-06T10:59:08;20.60;99.90
18335;DHT22;9293;49.524;10.964;2023-08-06T11:01:38;20.50;99.90
18335;DHT22;9293;49.524;10.964;2023-08-06T11:04:07;20.70;99.90
18335;DHT22;9293;49.524;10.964;2023-08-06T11:06:35;20.70;99.90
18335;DHT22;9293;49.524;10.964;2023-08-06T11:09:03;20.50;99.90
18335;DHT22;9293;49.524;10.964;2023-08-06T11:11:31;20.00;99.90
18335;DHT22;9293;49.524;10.964;2023-08-06T11:13:59;19.50;99.90
18335;DHT22;9293;49.524;10.964;2023-08-06T11:16:27;19.40;99.90
18335;DHT22;9293;49.524;10.964;2023-08-06T11:18:55;19.50;99.90
18335;DHT22;9293;49.524;10.964;2023-08-06T11:21:25;19.40;99.90
18335;DHT22;9293;49.524;10.964;2023-08-06T11:23:53;19.00;99.90
18335;DHT22;9293;49.524;10.964;2023-08-06T11:26:22;19.40;99.90
18335;DHT22;9293;49.524;10.964;2023-08-06T11:28:51;19.80;99.90
18335;DHT22;9293;49.524;10.964;2023-08-06T11:31:20;20.00;99.90
18335;DHT22;9293;49.524;10.964;2023-08-06T11:33:52;19.90;99.90
18335;DHT22;9293;49.524;10.964;2023-08-06T11:36:33;19.80;99.90
18335;DHT22;9293;49.524;10.964;2023-08-06T11:39:02;19.20;99.90
18335;DHT22;9293;49.524;10.964;2023-08-06T11:41:33;19.30;99.90
18335;DHT22;9293;49.524;10.964;2023-08-06T11:44:01;19.80;99.90
18335;DHT22;9293;49.524;10.964;2023-08-06T11:46:49;20.20;99.90
18335;DHT22;9293;49.524;10.964;2023-08-06T11:49:17;20.40;99.90
18335;DHT22;9293;49.524;10.964;2023-08-06T11:51:50;20.60;99.90
18335;DHT22;9293;49.524;10.964;2023-08-06T11:54:30;20.70;99.90
18335;DHT22;9293;49.524;10.964;2023-08-06T11:56:58;20.70;99.90
18335;DHT22;9293;49.524;10.964;2023-08-06T11:59:26;21.10;99.90
18335;DHT22;9293;49.524;10.964;2023-08-06T12:01:55;21.30;99.90
18335;DHT22;9293;49.524;10.964;2023-08-06T12:04:24;21.70;99.90
18335;DHT22;9293;49.524;10.964;2023-08-06T12:06:52;22.20;99.90
18335;DHT22;9293;49.524;10.964;2023-08-06T12:09:21;22.30;99.90
18335;DHT22;9293;49.524;10.964;2023-08-06T12:11:49;21.40;99.90
18335;DHT22;9293;49.524;10.964;2023-08-06T12:14:18;21.00;99.90
18335;DHT22;9293;49.524;10.964;2023-08-06T12:16:46;21.20;99.90
18335;DHT22;9293;49.524;10.964;2023-08-06T12:19:14;21.20;99.90
18335;DHT22;9293;49.524;10.964;2023-08-06T12:21:42;21.40;99.90
18335;DHT22;9293;49.524;10.964;2023-08-06T12:24:10;21.70;99.90
18335;DHT22;9293;49.524;10.964;2023-08-06T12:26:38;21.70;99.90
18335;DHT22;9293;49.524;10.964;2023-08-06T12:29:06;21.40;99.90
18335;DHT22;9293;49.524;10.964;2023-08-06T12:31:35;21.40;99.90
18335;DHT22;9293;49.524;10.964;2023-08-06T12:34:03;21.70;99.90
18335;DHT22;9293;49.524;10.964;2023-08-06T12:36:31;21.60;99.90
18335;DHT22;9293;49.524;10.964;2023-08-06T12:38:59;21.40;99.90
18335;DHT22;9293;49.524;10.964;2023-08-06T12:41:27;21.20;99.90
18335;DHT22;9293;49.524;10.964;2023-08-06T12:43:56;20.80;99.90
18335;DHT22;9293;49.524;10.964;2023-08-06T12:46:24;20.70;99.90
18335;DHT22;9293;49.524;10.964;2023-08-06T12:48:52;20.90;99.90
18335;DHT22;9293;49.524;10.964;2023-08-06T12:51:20;21.20;99.90
18335;DHT22;9293;49.524;10.964;2023-08-06T12:53:48;21.00;99.90
18335;DHT22;9293;49.524;10.964;2023-08-06T12:56:16;20.80;99.90
18335;DHT22;9293;49.524;10.964;2023-08-06T12:58:44;20.30;99.90
18335;DHT22;9293;49.524;10.964;2023-08-06T13:01:12;19.80;99.90
18335;DHT22;9293;49.524;10.964;2023-08-06T13:03:41;19.80;99.90
18335;DHT22;9293;49.524;10.964;2023-08-06T13:06:09;19.60;99.90
18335;DHT22;9293;49.524;10.964;2023-08-06T13:08:37;19.60;99.90
18335;DHT22;9293;49.524;10.964;2023-08-06T13:11:06;19.60;99.90
18335;DHT22;9293;49.524;10.964;2023-08-06T13:13:37;19.80;99.90
18335;DHT22;9293;49.524;10.964;2023-08-06T13:16:08;20.10;99.90
18335;DHT22;9293;49.524;10.964;2023-08-06T13:18:39;20.10;99.90
18335;DHT22;9293;49.524;10.964;2023-08-06T13:21:07;20.00;99.90
18335;DHT22;9293;49.524;10.964;2023-08-06T13:23:36;19.60;99.90
18335;DHT22;9293;49.524;10.964;2023-08-06T13:26:04;19.40;99.90
18335;DHT22;9293;49.524;10.964;2023-08-06T13:28:32;19.00;99.90
18335;DHT22;9293;49.524;10.964;2023-08-06T13:31:00;18.80;99.90
18335;DHT22;9293;49.524;10.964;2023-08-06T13:33:29;18.60;99.90
18335;DHT22;9293;49.524;10.964;2023-08-06T13:35:57;18.70;99.90
18335;DHT22;9293;49.524;10.964;2023-08-06T13:38:25;18.60;99.90
18335;DHT22;9293;49.524;10.964;2023-08-06T13:40:53;18.30;99.90
18335;DHT22;9293;49.524;10.964;2023-08-06T13:43:21;18.10;99.90
18335;DHT22;9293;49.524;10.964;2023-08-06T13:45:49;17.80;99.90
18335;DHT22;9293;49.524;10.964;2023-08-06T13:48:18;17.60;99.90
18335;DHT22;9293;49.524;10.964;2023-08-06T13:50:46;17.60;99.90
18335;DHT22;9293;49.524;10.964;2023-08-06T13:53:14;17.70;99.90
18335;DHT22;9293;49.524;10.964;2023-08-06T13:55:42;17.80;99.90
18335;DHT22;9293;49.524;10.964;2023-08-06T13:58:10;17.50;99.90
18335;DHT22;9293;49.524;10.964;2023-08-06T14:00:39;17.40;99.90
18335;DHT22;9293;49.524;10.964;2023-08-06T14:03:07;17.40;99.90
18335;DHT22;9293;49.524;10.964;2023-08-06T14:05:36;17.20;99.90
18335;DHT22;9293;49.524;10.964;2023-08-06T14:08:04;16.90;99.90
18335;DHT22;9293;49.524;10.964;2023-08-06T14:10:34;16.50;99.90
18335;DHT22;9293;49.524;10.964;2023-08-06T14:13:03;16.30;99.90
18335;DHT22;9293;49.524;10.964;2023-08-06T14:15:36;16.30;99.90
18335;DHT22;9293;49.524;10.964;2023-08-06T14:18:04;16.30;99.90
18335;DHT22;9293;49.524;10.964;2023-08-06T14:20:32;16.30;99.90
18335;DHT22;9293;49.524;10.964;2023-08-06T14:23:01;16.40;99.90
18335;DHT22;9293;49.524;10.964;2023-08-06T14:25:29;16.30;99.90
18335;DHT22;9293;49.524;10.964;2023-08-06T14:27:57;16.30;99.90
18335;DHT22;9293;49.524;10.964;2023-08-06T14:30:25;16.30;99.90
18335;DHT22;9293;49.524;10.964;2023-08-06T14:32:54;16.20;99.90
18335;DHT22;9293;49.524;10.964;2023-08-06T14:35:22;16.30;99.90
18335;DHT22;9293;49.524;10.964;2023-08-06T14:37:50;16.30;99.90
18335;DHT22;9293;49.524;10.964;2023-08-06T14:40:18;16.30;99.90
18335;DHT22;9293;49.524;10.964;2023-08-06T14:42:46;16.20;99.90
18335;DHT22;9293;49.524;10.964;2023-08-06T14:45:15;16.10;99.90
18335;DHT22;9293;49.524;10.964;2023-08-06T14:47:43;16.00;99.90
18335;DHT22;9293;49.524;10.964;2023-08-06T14:50:11;16.00;99.90
18335;DHT22;9293;49.524;10.964;2023-08-06T14:52:39;15.90;99.90
18335;DHT22;9293;49.524;10.964;2023-08-06T14:55:07;16.00;99.90
18335;DHT22;9293;49.524;10.964;2023-08-06T14:57:36;16.00;99.90
18335;DHT22;9293;49.524;10.964;2023-08-06T15:00:04;15.90;99.90
18335;DHT22;9293;49.524;10.964;2023-08-06T15:02:33;16.00;99.90
18335;DHT22;9293;49.524;10.964;2023-08-06T15:05:01;16.00;99.90
18335;DHT22;9293;49.524;10.964;2023-08-06T15:07:29;16.30;99.90
18335;DHT22;9293;49.524;10.964;2023-08-06T15:10:01;16.50;99.90
18335;DHT22;9293;49.524;10.964;2023-08-06T15:12:52;16.80;99.90
18335;DHT22;9293;49.524;10.964;2023-08-06T15:15:20;16.70;99.90
18335;DHT22;9293;49.524;10.964;2023-08-06T15:17:57;16.70;99.90
18335;DHT22;9293;49.524;10.964;2023-08-06T15:20:26;16.60;99.90
18335;DHT22;9293;49.524;10.964;2023-08-06T15:22:54;16.60;99.90
18335;DHT22;9293;49.524;10.964;2023-08-06T15:25:25;16.50;99.90
18335;DHT22;9293;49.524;10.964;2023-08-06T15:27:53;16.50;99.90
18335;DHT22;9293;49.524;10.964;2023-08-06T15:30:21;16.40;99.90
18335;DHT22;9293;49.524;10.964;2023-08-06T15:32:49;16.30;99.90
18335;DHT22;9293;49.524;10.964;2023-08-06T15:35:18;16.30;99.90
18335;DHT22;9293;49.524;10.964;2023-08-06T15:37:46;16.30;99.90
18335;DHT22;9293;49.524;10.964;2023-08-06T15:40:15;16.30;99.90
18335;DHT22;9293;49.524;10.964;2023-08-06T15:42:43;16.40;99.90
18335;DHT22;9293;49.524;10.964;2023-08-06T15:45:11;16.50;99.90
18335;DHT22;9293;49.524;10.964;2023-08-06T15:47:39;16.60;99.90
18335;DHT22;9293;49.524;10.964;2023-08-06T15:50:08;16.60;99.90
18335;DHT22;9293;49.524;10.964;2023-08-06T15:52:37;16.70;99.90
18335;DHT22;9293;49.524;10.964;2023-08-06T15:55:05;16.70;99.90